createdAt,value
2018-07-06T00:00:24.683Z,21.30
2018-07-06T00:01:24.636Z,21.24
2018-07-06T00:02:24.595Z,21.24
2018-07-06T00:03:24.538Z,21.30
2018-07-06T00:04:24.497Z,21.27
2018-07-06T00:05:24.459Z,21.22
2018-07-06T00:06:24.403Z,21.24
2018-07-06T00:07:24.380Z,21.24
2018-07-06T00:08:24.358Z,21.25
2018-07-06T00:09:24.279Z,21.20
2018-07-06T00:10:24.227Z,21.07
2018-07-06T00:11:24.185Z,20.99
2018-07-06T00:12:24.154Z,21.03
2018-07-06T00:13:24.095Z,21.06
2018-07-06T00:14:24.052Z,21.05
2018-07-06T00:15:23.997Z,21.12
2018-07-06T00:16:23.979Z,21.09
2018-07-06T00:17:23.910Z,20.99
2018-07-06T00:18:23.867Z,20.96
2018-07-06T00:19:23.813Z,20.97
2018-07-06T00:20:23.793Z,20.96
2018-07-06T00:21:23.759Z,20.97
2018-07-06T00:22:23.679Z,20.93
2018-07-06T00:23:23.639Z,20.97
2018-07-06T00:24:23.593Z,20.96
2018-07-06T00:25:23.553Z,20.96
2018-07-06T00:26:23.496Z,20.96
2018-07-06T00:27:23.467Z,20.97
2018-07-06T00:28:23.420Z,21.06
2018-07-06T00:29:23.366Z,21.02
2018-07-06T00:30:23.322Z,21.09
2018-07-06T00:31:23.279Z,21.06
2018-07-06T00:32:23.230Z,21.12
2018-07-06T00:33:23.198Z,21.15
2018-07-06T00:34:23.150Z,21.03
2018-07-06T00:35:23.121Z,21.02
2018-07-06T00:36:23.055Z,21.03
2018-07-06T00:37:23.011Z,21.06
2018-07-06T00:38:22.957Z,20.97
2018-07-06T00:39:22.923Z,21.05
2018-07-06T00:40:22.871Z,20.96
2018-07-06T00:41:22.832Z,21.00
2018-07-06T00:42:22.785Z,20.92
2018-07-06T00:43:22.739Z,20.96
2018-07-06T00:44:22.687Z,20.92
2018-07-06T00:45:22.646Z,20.96
2018-07-06T00:46:22.591Z,20.85
2018-07-06T00:47:22.586Z,20.92
2018-07-06T00:48:22.676Z,20.84
2018-07-06T00:49:22.462Z,20.85
2018-07-06T00:50:22.410Z,20.82
2018-07-06T00:51:22.380Z,20.72
2018-07-06T00:52:22.334Z,20.77
2018-07-06T00:53:22.276Z,20.75
2018-07-06T00:54:22.245Z,20.75
2018-07-06T00:55:22.197Z,20.72
2018-07-06T00:56:22.140Z,20.74
2018-07-06T00:57:22.102Z,20.78
2018-07-06T00:58:22.059Z,20.70
2018-07-06T00:59:22.006Z,20.82
2018-07-06T01:00:21.969Z,20.72
2018-07-06T01:01:21.915Z,20.69
2018-07-06T01:02:21.879Z,20.67
2018-07-06T01:03:21.833Z,20.74
2018-07-06T01:04:21.784Z,20.60
2018-07-06T01:05:21.735Z,20.80
2018-07-06T01:06:21.693Z,20.72
2018-07-06T01:07:21.676Z,20.75
2018-07-06T01:08:21.613Z,20.63
2018-07-06T01:09:21.566Z,20.69
2018-07-06T01:10:21.515Z,20.67
2018-07-06T01:11:21.472Z,20.70
2018-07-06T01:12:21.421Z,20.63
2018-07-06T01:13:21.375Z,20.63
2018-07-06T01:14:21.330Z,20.67
2018-07-06T01:15:21.287Z,20.66
2018-07-06T01:16:21.239Z,20.65
2018-07-06T01:17:21.204Z,20.47
2018-07-06T01:18:21.145Z,20.51
2018-07-06T01:19:21.103Z,20.43
2018-07-06T01:20:21.259Z,20.51
2018-07-06T01:21:21.022Z,20.60
2018-07-06T01:22:20.961Z,20.62
2018-07-06T01:23:20.919Z,20.59
2018-07-06T01:24:20.880Z,20.62
2018-07-06T01:25:20.833Z,20.56
2018-07-06T01:26:20.779Z,20.69
2018-07-06T01:27:20.762Z,20.59
2018-07-06T01:28:20.704Z,20.56
2018-07-06T01:29:20.662Z,20.58
2018-07-06T01:30:20.607Z,20.55
2018-07-06T01:31:20.563Z,20.52
2018-07-06T01:32:20.521Z,20.52
2018-07-06T01:33:20.476Z,20.47
2018-07-06T01:34:20.424Z,20.52
2018-07-06T01:35:20.381Z,20.48
2018-07-06T01:36:20.333Z,20.41
2018-07-06T01:37:20.313Z,20.44
2018-07-06T01:38:20.236Z,20.47
2018-07-06T01:39:20.195Z,20.44
2018-07-06T01:40:20.148Z,20.44
2018-07-06T01:41:20.108Z,20.52
2018-07-06T01:42:20.062Z,20.47
2018-07-06T01:43:20.022Z,20.44
2018-07-06T01:44:19.972Z,20.34
2018-07-06T01:45:20.024Z,20.39
2018-07-06T01:46:19.882Z,20.39
2018-07-06T01:47:19.830Z,20.47
2018-07-06T01:48:19.788Z,20.36
2018-07-06T01:49:19.750Z,20.29
2018-07-06T01:50:19.703Z,20.48
2018-07-06T01:51:19.645Z,20.47
2018-07-06T01:52:19.600Z,20.44
2018-07-06T01:53:19.572Z,20.43
2018-07-06T01:54:19.517Z,20.32
2018-07-06T01:55:19.468Z,20.39
2018-07-06T01:56:19.429Z,20.29
2018-07-06T01:57:19.384Z,20.41
2018-07-06T01:58:19.325Z,20.37
2018-07-06T01:59:19.292Z,20.34
2018-07-06T02:00:19.245Z,20.32
2018-07-06T02:01:19.198Z,20.36
2018-07-06T02:02:19.149Z,20.31
2018-07-06T02:03:19.114Z,20.39
2018-07-06T02:04:19.054Z,20.32
2018-07-06T02:05:19.026Z,20.41
2018-07-06T02:06:18.976Z,20.32
2018-07-06T02:07:18.925Z,20.34
2018-07-06T02:08:18.879Z,20.34
2018-07-06T02:09:18.836Z,20.29
2018-07-06T02:10:18.791Z,20.22
2018-07-06T02:11:18.743Z,20.22
2018-07-06T02:12:18.692Z,20.28
2018-07-06T02:13:18.660Z,20.19
2018-07-06T02:14:18.599Z,20.25
2018-07-06T02:15:18.569Z,20.21
2018-07-06T02:16:18.521Z,20.22
2018-07-06T02:17:18.473Z,20.19
2018-07-06T02:18:18.429Z,20.16
2018-07-06T02:19:18.382Z,20.26
2018-07-06T02:20:18.332Z,20.24
2018-07-06T02:21:18.746Z,20.29
2018-07-06T02:22:18.248Z,20.26
2018-07-06T02:23:18.203Z,20.24
2018-07-06T02:24:18.150Z,20.14
2018-07-06T02:25:18.098Z,20.26
2018-07-06T02:26:18.060Z,20.26
2018-07-06T02:27:18.019Z,20.19
2018-07-06T02:28:17.976Z,20.13
2018-07-06T02:29:17.919Z,20.18
2018-07-06T02:30:17.887Z,20.09
2018-07-06T02:31:17.833Z,20.13
2018-07-06T02:32:17.790Z,20.14
2018-07-06T02:33:17.743Z,20.09
2018-07-06T02:34:17.698Z,20.11
2018-07-06T02:35:17.673Z,20.10
2018-07-06T02:36:17.602Z,20.16
2018-07-06T02:37:17.558Z,20.02
2018-07-06T02:38:17.513Z,20.09
2018-07-06T02:39:17.459Z,20.06
2018-07-06T02:40:17.431Z,20.11
2018-07-06T02:41:17.373Z,20.04
2018-07-06T02:42:17.332Z,20.07
2018-07-06T02:43:17.282Z,20.09
2018-07-06T02:44:17.240Z,20.18
2018-07-06T02:45:17.189Z,20.13
2018-07-06T02:46:17.152Z,20.19
2018-07-06T02:47:17.104Z,20.11
2018-07-06T02:48:17.060Z,20.14
2018-07-06T02:49:17.011Z,20.21
2018-07-06T02:50:16.973Z,20.14
2018-07-06T02:51:16.926Z,20.19
2018-07-06T02:52:16.880Z,20.09
2018-07-06T02:53:16.829Z,20.10
2018-07-06T02:54:16.793Z,20.04
2018-07-06T02:55:16.851Z,19.99
2018-07-06T02:56:16.700Z,19.99
2018-07-06T02:57:16.643Z,19.89
2018-07-06T02:58:16.624Z,19.91
2018-07-06T02:59:16.557Z,20.00
2018-07-06T03:00:16.508Z,19.86
2018-07-06T03:01:16.472Z,19.92
2018-07-06T03:02:16.415Z,20.04
2018-07-06T03:03:16.394Z,19.92
2018-07-06T03:04:16.322Z,19.94
2018-07-06T03:05:16.285Z,19.99
2018-07-06T03:06:16.231Z,19.92
2018-07-06T03:07:16.183Z,19.84
2018-07-06T03:08:16.148Z,19.92
2018-07-06T03:09:16.094Z,19.89
2018-07-06T03:10:16.048Z,19.95
2018-07-06T03:11:16.013Z,19.86
2018-07-06T03:12:15.962Z,19.81
2018-07-06T03:13:15.928Z,19.64
2018-07-06T03:14:15.869Z,19.77
2018-07-06T03:15:15.830Z,19.77
2018-07-06T03:16:15.778Z,19.86
2018-07-06T03:17:15.735Z,19.77
2018-07-06T03:18:15.693Z,19.77
2018-07-06T03:19:15.640Z,19.71
2018-07-06T03:20:15.627Z,19.79
2018-07-06T03:21:15.553Z,19.79
2018-07-06T03:22:15.509Z,19.77
2018-07-06T03:23:15.457Z,19.82
2018-07-06T03:24:15.409Z,19.82
2018-07-06T03:25:15.363Z,19.85
2018-07-06T03:26:15.343Z,19.89
2018-07-06T03:27:15.275Z,19.74
2018-07-06T03:28:15.312Z,19.86
2018-07-06T03:29:15.188Z,19.86
2018-07-06T03:30:15.136Z,19.76
2018-07-06T03:31:15.092Z,19.79
2018-07-06T03:32:15.051Z,19.66
2018-07-06T03:33:15.003Z,19.64
2018-07-06T03:34:14.959Z,19.63
2018-07-06T03:35:14.909Z,19.64
2018-07-06T03:36:14.864Z,19.63
2018-07-06T03:37:14.823Z,19.59
2018-07-06T03:38:14.770Z,19.51
2018-07-06T03:39:14.733Z,19.62
2018-07-06T03:40:14.682Z,19.67
2018-07-06T03:41:14.649Z,19.62
2018-07-06T03:42:14.588Z,19.59
2018-07-06T03:43:14.551Z,19.69
2018-07-06T03:44:14.488Z,19.62
2018-07-06T03:45:14.456Z,19.64
2018-07-06T03:46:14.418Z,19.58
2018-07-06T03:47:14.387Z,19.47
2018-07-06T03:48:14.316Z,19.55
2018-07-06T03:49:14.267Z,19.62
2018-07-06T03:50:14.224Z,19.55
2018-07-06T03:51:14.176Z,19.54
2018-07-06T03:52:14.136Z,19.49
2018-07-06T03:53:14.083Z,19.51
2018-07-06T03:54:14.042Z,19.58
2018-07-06T03:55:14.587Z,19.54
2018-07-06T03:56:13.963Z,19.47
2018-07-06T03:57:13.908Z,19.58
2018-07-06T03:58:13.869Z,19.63
2018-07-06T03:59:13.821Z,19.52
2018-07-06T04:00:13.771Z,19.54
2018-07-06T04:01:13.730Z,19.56
2018-07-06T04:02:13.684Z,19.52
2018-07-06T04:03:13.640Z,19.54
2018-07-06T04:04:13.598Z,19.44
2018-07-06T04:05:13.554Z,19.48
2018-07-06T04:06:13.502Z,19.49
2018-07-06T04:07:13.457Z,19.48
2018-07-06T04:08:13.417Z,19.58
2018-07-06T04:09:13.367Z,19.58
2018-07-06T04:10:13.324Z,19.64
2018-07-06T04:11:13.266Z,19.62
2018-07-06T04:12:13.232Z,19.58
2018-07-06T04:13:13.203Z,19.59
2018-07-06T04:14:13.134Z,19.63
2018-07-06T04:15:13.106Z,19.52
2018-07-06T04:16:13.047Z,19.58
2018-07-06T04:17:13.001Z,19.56
2018-07-06T04:18:12.953Z,19.49
2018-07-06T04:19:12.901Z,19.49
2018-07-06T04:20:13.391Z,19.52
2018-07-06T04:21:12.812Z,19.54
2018-07-06T04:22:12.771Z,19.47
2018-07-06T04:23:12.717Z,19.36
2018-07-06T04:24:12.675Z,19.47
2018-07-06T04:25:12.630Z,19.48
2018-07-06T04:26:13.357Z,19.39
2018-07-06T04:27:12.548Z,19.39
2018-07-06T04:28:12.495Z,19.45
2018-07-06T04:29:12.448Z,19.44
2018-07-06T04:30:12.403Z,19.45
2018-07-06T04:31:12.357Z,19.40
2018-07-06T04:32:12.317Z,19.40
2018-07-06T04:33:12.271Z,19.37
2018-07-06T04:34:12.218Z,19.36
2018-07-06T04:35:12.181Z,19.44
2018-07-06T04:36:12.124Z,19.39
2018-07-06T04:37:12.083Z,19.45
2018-07-06T04:38:12.029Z,19.33
2018-07-06T04:39:11.991Z,19.34
2018-07-06T04:40:11.942Z,19.29
2018-07-06T04:41:11.902Z,19.19
2018-07-06T04:42:11.854Z,19.31
2018-07-06T04:43:11.809Z,19.30
2018-07-06T04:44:11.765Z,19.31
2018-07-06T04:45:11.715Z,19.34
2018-07-06T04:46:11.670Z,19.33
2018-07-06T04:47:11.624Z,19.34
2018-07-06T04:48:11.591Z,19.44
2018-07-06T04:49:11.524Z,19.34
2018-07-06T04:50:11.477Z,19.36
2018-07-06T04:51:11.430Z,19.44
2018-07-06T04:52:11.380Z,19.39
2018-07-06T04:53:11.331Z,19.39
2018-07-06T04:54:11.293Z,19.36
2018-07-06T04:55:11.233Z,19.36
2018-07-06T04:56:11.211Z,19.31
2018-07-06T04:57:11.144Z,19.26
2018-07-06T04:58:11.110Z,19.19
2018-07-06T04:59:11.067Z,19.21
2018-07-06T05:00:11.012Z,19.15
2018-07-06T05:01:10.968Z,19.18
2018-07-06T05:02:10.924Z,19.09
2018-07-06T05:03:10.879Z,19.09
2018-07-06T05:04:10.820Z,19.07
2018-07-06T05:05:10.804Z,19.04
2018-07-06T05:06:10.736Z,19.11
2018-07-06T05:07:10.690Z,19.09
2018-07-06T05:08:10.648Z,19.11
2018-07-06T05:09:10.596Z,19.02
2018-07-06T05:10:10.550Z,19.00
2018-07-06T05:11:10.501Z,19.08
2018-07-06T05:12:10.463Z,19.08
2018-07-06T05:13:10.435Z,19.04
2018-07-06T05:14:10.367Z,19.12
2018-07-06T05:15:10.313Z,18.96
2018-07-06T05:16:10.283Z,19.08
2018-07-06T05:17:10.229Z,19.08
2018-07-06T05:18:10.181Z,19.19
2018-07-06T05:19:10.149Z,19.18
2018-07-06T05:20:10.097Z,19.19
2018-07-06T05:21:10.043Z,19.26
2018-07-06T05:22:09.998Z,19.18
2018-07-06T05:23:09.958Z,19.12
2018-07-06T05:24:09.904Z,19.07
2018-07-06T05:25:09.864Z,19.12
2018-07-06T05:26:09.817Z,19.11
2018-07-06T05:27:09.769Z,19.07
2018-07-06T05:28:09.722Z,19.11
2018-07-06T05:29:09.676Z,19.08
2018-07-06T05:30:09.635Z,19.11
2018-07-06T05:31:09.585Z,18.93
2018-07-06T05:32:09.530Z,18.96
2018-07-06T05:33:09.497Z,18.99
2018-07-06T05:34:09.444Z,19.00
2018-07-06T05:35:09.411Z,19.07
2018-07-06T05:36:09.353Z,19.04
2018-07-06T05:37:09.311Z,19.14
2018-07-06T05:38:09.269Z,19.11
2018-07-06T05:39:09.213Z,19.12
2018-07-06T05:40:09.169Z,19.02
2018-07-06T05:41:09.131Z,18.93
2018-07-06T05:42:09.089Z,18.92
2018-07-06T05:43:09.034Z,18.98
2018-07-06T05:44:08.998Z,18.90
2018-07-06T05:45:08.937Z,18.93
2018-07-06T05:46:08.898Z,18.95
2018-07-06T05:47:08.841Z,18.95
2018-07-06T05:48:08.805Z,18.99
2018-07-06T05:49:08.766Z,19.00
2018-07-06T05:50:08.704Z,18.93
2018-07-06T05:51:08.664Z,18.96
2018-07-06T05:52:08.628Z,18.99
2018-07-06T05:53:08.565Z,18.95
2018-07-06T05:54:08.523Z,18.88
2018-07-06T05:55:08.479Z,18.86
2018-07-06T05:56:08.431Z,18.84
2018-07-06T05:57:08.394Z,18.84
2018-07-06T05:58:08.342Z,18.77
2018-07-06T05:59:08.339Z,18.89
2018-07-06T06:00:08.256Z,18.83
2018-07-06T06:01:08.204Z,18.88
2018-07-06T06:02:08.162Z,18.92
2018-07-06T06:03:08.113Z,18.71
2018-07-06T06:04:08.069Z,18.84
2018-07-06T06:05:08.017Z,18.86
2018-07-06T06:06:07.978Z,18.75
2018-07-06T06:07:07.925Z,18.88
2018-07-06T06:08:07.884Z,18.80
2018-07-06T06:09:07.831Z,18.90
2018-07-06T06:10:07.790Z,18.83
2018-07-06T06:11:07.752Z,18.68
2018-07-06T06:12:07.771Z,18.90
2018-07-06T06:13:07.648Z,18.73
2018-07-06T06:14:07.611Z,18.74
2018-07-06T06:15:07.560Z,18.77
2018-07-06T06:16:07.511Z,18.70
2018-07-06T06:17:07.462Z,18.70
2018-07-06T06:18:07.424Z,18.70
2018-07-06T06:19:07.375Z,18.75
2018-07-06T06:20:07.322Z,18.73
2018-07-06T06:21:07.281Z,18.74
2018-07-06T06:22:07.232Z,18.73
2018-07-06T06:23:07.191Z,18.71
2018-07-06T06:24:07.140Z,18.75
2018-07-06T06:25:07.109Z,18.80
2018-07-06T06:26:07.056Z,18.83
2018-07-06T06:27:07.008Z,18.86
2018-07-06T06:28:06.961Z,18.73
2018-07-06T06:29:06.912Z,18.63
2018-07-06T06:30:06.861Z,18.56
2018-07-06T06:31:06.822Z,18.52
2018-07-06T06:32:06.777Z,18.55
2018-07-06T06:33:06.832Z,18.58
2018-07-06T06:34:06.676Z,18.63
2018-07-06T06:35:06.636Z,18.74
2018-07-06T06:36:06.589Z,18.66
2018-07-06T06:37:06.543Z,18.70
2018-07-06T06:38:06.496Z,18.62
2018-07-06T06:39:06.448Z,18.73
2018-07-06T06:40:06.404Z,18.66
2018-07-06T06:41:06.359Z,18.70
2018-07-06T06:42:06.314Z,18.62
2018-07-06T06:43:06.259Z,18.63
2018-07-06T06:44:06.252Z,18.62
2018-07-06T06:45:06.183Z,18.59
2018-07-06T06:46:06.130Z,18.66
2018-07-06T06:47:06.086Z,18.55
2018-07-06T06:48:06.029Z,18.55
2018-07-06T06:49:05.991Z,18.62
2018-07-06T06:50:05.936Z,18.52
2018-07-06T06:51:05.892Z,18.53
2018-07-06T06:52:05.858Z,18.55
2018-07-06T06:53:06.613Z,18.52
2018-07-06T06:54:05.760Z,18.56
2018-07-06T06:55:05.705Z,18.63
2018-07-06T06:56:05.666Z,18.56
2018-07-06T06:57:05.619Z,18.50
2018-07-06T06:58:05.568Z,18.43
2018-07-06T06:59:05.547Z,18.53
2018-07-06T07:00:05.484Z,18.52
2018-07-06T07:01:05.510Z,18.55
2018-07-06T07:02:05.385Z,18.60
2018-07-06T07:03:05.332Z,18.62
2018-07-06T07:04:05.295Z,18.49
2018-07-06T07:05:05.248Z,18.53
2018-07-06T07:06:05.200Z,18.45
2018-07-06T07:07:05.151Z,18.41
2018-07-06T07:08:05.108Z,18.40
2018-07-06T07:09:05.081Z,18.40
2018-07-06T07:10:05.018Z,18.26
2018-07-06T07:11:04.963Z,18.40
2018-07-06T07:12:04.925Z,18.34
2018-07-06T07:13:04.878Z,18.31
2018-07-06T07:14:04.858Z,18.29
2018-07-06T07:15:04.785Z,18.33
2018-07-06T07:16:04.736Z,18.37
2018-07-06T07:17:04.690Z,18.29
2018-07-06T07:18:04.643Z,18.28
2018-07-06T07:19:04.598Z,18.18
2018-07-06T07:20:04.561Z,18.29
2018-07-06T07:21:04.568Z,18.25
2018-07-06T07:22:04.467Z,18.38
2018-07-06T07:23:04.413Z,18.28
2018-07-06T07:24:04.372Z,18.37
2018-07-06T07:25:04.316Z,18.25
2018-07-06T07:26:04.268Z,18.35
2018-07-06T07:27:04.233Z,18.49
2018-07-06T07:28:04.190Z,18.38
2018-07-06T07:29:04.142Z,18.44
2018-07-06T07:30:04.147Z,18.31
2018-07-06T07:31:04.042Z,18.29
2018-07-06T07:32:03.996Z,18.31
2018-07-06T07:33:03.951Z,18.23
2018-07-06T07:34:03.902Z,18.33
2018-07-06T07:35:03.857Z,18.28
2018-07-06T07:36:03.808Z,18.35
2018-07-06T07:37:03.767Z,18.31
2018-07-06T07:38:03.715Z,18.26
2018-07-06T07:39:03.668Z,18.34
2018-07-06T07:40:03.638Z,18.29
2018-07-06T07:41:03.584Z,18.40
2018-07-06T07:42:03.543Z,18.41
2018-07-06T07:43:03.496Z,18.40
2018-07-06T07:44:03.445Z,18.47
2018-07-06T07:45:03.394Z,18.56
2018-07-06T07:46:03.357Z,18.53
2018-07-06T07:47:03.301Z,18.53
2018-07-06T07:48:03.262Z,18.52
2018-07-06T07:49:03.205Z,18.50
2018-07-06T07:50:03.165Z,18.43
2018-07-06T07:51:03.125Z,18.38
2018-07-06T07:52:03.071Z,18.43
2018-07-06T07:53:03.032Z,18.31
2018-07-06T07:54:02.981Z,18.25
2018-07-06T07:55:02.973Z,18.25
2018-07-06T07:56:02.886Z,18.20
2018-07-06T07:57:02.840Z,18.15
2018-07-06T07:58:02.794Z,18.19
2018-07-06T07:59:02.748Z,18.15
2018-07-06T08:00:02.711Z,18.20
2018-07-06T08:01:02.849Z,18.25
2018-07-06T08:02:02.610Z,18.35
2018-07-06T08:03:02.563Z,18.29
2018-07-06T08:04:02.510Z,18.31
2018-07-06T08:05:02.471Z,18.43
2018-07-06T08:06:02.422Z,18.25
2018-07-06T08:07:02.382Z,18.31
2018-07-06T08:08:02.325Z,18.31
2018-07-06T08:09:02.285Z,18.25
2018-07-06T08:10:02.233Z,18.26
2018-07-06T08:11:02.196Z,18.10
2018-07-06T08:12:02.145Z,18.19
2018-07-06T08:13:02.089Z,18.31
2018-07-06T08:14:05.042Z,18.38
2018-07-06T08:15:02.000Z,18.38
2018-07-06T08:16:01.961Z,18.31
2018-07-06T08:17:01.909Z,18.35
2018-07-06T08:18:01.871Z,18.25
2018-07-06T08:19:01.829Z,18.18
2018-07-06T08:20:01.772Z,18.18
2018-07-06T08:21:01.727Z,18.19
2018-07-06T08:22:01.685Z,18.20
2018-07-06T08:23:01.640Z,18.33
2018-07-06T08:24:01.591Z,18.19
2018-07-06T08:25:01.538Z,18.20
2018-07-06T08:26:01.491Z,18.18
2018-07-06T08:27:01.456Z,18.22
2018-07-06T08:28:01.409Z,18.19
2018-07-06T08:29:01.363Z,18.18
2018-07-06T08:30:01.318Z,18.23
2018-07-06T08:31:01.270Z,18.23
2018-07-06T08:32:01.223Z,18.23
2018-07-06T08:33:01.178Z,18.31
2018-07-06T08:34:01.132Z,18.29
2018-07-06T08:35:01.086Z,18.38
2018-07-06T08:36:01.027Z,18.33
2018-07-06T08:37:00.978Z,18.38
2018-07-06T08:38:00.952Z,18.26
2018-07-06T08:39:00.890Z,18.18
2018-07-06T08:40:00.849Z,18.11
2018-07-06T08:41:00.794Z,18.31
2018-07-06T08:42:00.759Z,18.34
2018-07-06T08:43:00.709Z,18.37
2018-07-06T08:44:00.659Z,18.28
2018-07-06T08:45:00.699Z,18.22
2018-07-06T08:46:00.567Z,18.18
2018-07-06T08:47:00.525Z,18.22
2018-07-06T08:48:00.480Z,18.18
2018-07-06T08:49:00.435Z,18.20
2018-07-06T08:50:00.383Z,18.22
2018-07-06T08:51:00.338Z,18.15
2018-07-06T08:52:00.292Z,18.16
2018-07-06T08:53:00.243Z,18.13
2018-07-06T08:54:00.190Z,18.11
2018-07-06T08:55:00.148Z,18.01
2018-07-06T08:56:00.105Z,18.03
2018-07-06T08:57:00.053Z,18.00
2018-07-06T08:58:00.023Z,18.05
2018-07-06T08:59:00.044Z,18.03
2018-07-06T08:59:59.921Z,17.98
2018-07-06T09:00:59.879Z,18.05
2018-07-06T09:01:59.825Z,18.00
2018-07-06T09:02:59.780Z,18.07
2018-07-06T09:03:59.778Z,18.18
2018-07-06T09:04:59.695Z,18.08
2018-07-06T09:05:59.645Z,18.11
2018-07-06T09:06:59.592Z,18.20
2018-07-06T09:07:59.550Z,18.08
2018-07-06T09:08:59.495Z,18.16
2018-07-06T09:09:59.460Z,18.05
2018-07-06T09:10:59.413Z,18.04
2018-07-06T09:11:59.362Z,18.11
2018-07-06T09:12:59.371Z,18.08
2018-07-06T09:13:59.257Z,18.23
2018-07-06T09:14:59.224Z,18.16
2018-07-06T09:15:59.720Z,18.11
2018-07-06T09:16:59.135Z,18.13
2018-07-06T09:17:59.084Z,18.11
2018-07-06T09:18:59.032Z,18.08
2018-07-06T09:19:59.287Z,17.98
2018-07-06T09:20:58.937Z,18.10
2018-07-06T09:21:58.903Z,18.04
2018-07-06T09:22:58.844Z,18.07
2018-07-06T09:23:58.808Z,17.98
2018-07-06T09:24:58.768Z,18.00
2018-07-06T09:25:58.978Z,18.00
2018-07-06T09:26:58.672Z,17.94
2018-07-06T09:27:58.616Z,17.86
2018-07-06T09:28:58.573Z,17.92
2018-07-06T09:29:58.527Z,17.97
2018-07-06T09:30:58.485Z,17.98
2018-07-06T09:31:58.435Z,18.03
2018-07-06T09:32:58.385Z,18.03
2018-07-06T09:33:58.339Z,18.00
2018-07-06T09:34:58.292Z,17.98
2018-07-06T09:35:58.330Z,17.95
2018-07-06T09:36:58.205Z,18.01
2018-07-06T09:37:58.156Z,18.04
2018-07-06T09:38:58.104Z,18.01
2018-07-06T09:39:58.065Z,18.01
2018-07-06T09:40:58.011Z,17.98
2018-07-06T09:41:57.968Z,18.04
2018-07-06T09:42:57.916Z,17.95
2018-07-06T09:43:57.878Z,17.98
2018-07-06T09:44:57.825Z,17.89
2018-07-06T09:45:57.776Z,17.94
2018-07-06T09:46:57.730Z,17.95
2018-07-06T09:47:57.685Z,17.86
2018-07-06T09:48:57.643Z,17.87
2018-07-06T09:49:57.593Z,17.87
2018-07-06T09:50:57.581Z,17.90
2018-07-06T09:51:57.503Z,17.90
2018-07-06T09:52:57.457Z,17.90
2018-07-06T09:53:57.418Z,17.95
2018-07-06T09:54:57.365Z,17.89
2018-07-06T09:55:57.321Z,17.87
2018-07-06T09:56:57.269Z,17.87
2018-07-06T09:57:57.282Z,17.90
2018-07-06T09:58:57.173Z,17.95
2018-07-06T09:59:57.134Z,17.90
2018-07-06T10:00:57.081Z,17.83
2018-07-06T10:01:57.045Z,17.76
2018-07-06T10:02:56.999Z,17.70
2018-07-06T10:03:57.049Z,17.85
2018-07-06T10:04:56.896Z,17.89
2018-07-06T10:05:56.934Z,17.95
2018-07-06T10:06:56.802Z,17.92
2018-07-06T10:07:57.464Z,17.89
2018-07-06T10:08:56.708Z,17.79
2018-07-06T10:09:56.661Z,17.83
2018-07-06T10:10:56.660Z,17.89
2018-07-06T10:11:56.579Z,17.85
2018-07-06T10:12:56.528Z,17.78
2018-07-06T10:13:56.471Z,17.86
2018-07-06T10:14:56.794Z,17.89
2018-07-06T10:15:56.393Z,17.89
2018-07-06T10:16:56.331Z,17.89
2018-07-06T10:17:56.303Z,17.86
2018-07-06T10:18:56.251Z,17.86
2018-07-06T10:19:56.350Z,17.79
2018-07-06T10:20:56.337Z,17.79
2018-07-06T10:21:56.170Z,17.94
2018-07-06T10:22:56.059Z,17.85
2018-07-06T10:23:56.020Z,17.90
2018-07-06T10:24:55.964Z,17.90
2018-07-06T10:25:55.926Z,17.89
2018-07-06T10:26:55.870Z,17.95
2018-07-06T10:27:55.821Z,18.00
2018-07-06T10:28:55.776Z,17.92
2018-07-06T10:29:55.784Z,18.00
2018-07-06T10:30:55.687Z,18.01
2018-07-06T10:31:55.648Z,18.00
2018-07-06T10:32:55.621Z,18.04
2018-07-06T10:33:55.574Z,17.97
2018-07-06T10:34:55.506Z,17.98
2018-07-06T10:35:55.466Z,17.97
2018-07-06T10:36:55.407Z,18.03
2018-07-06T10:37:55.368Z,18.00
2018-07-06T10:38:55.329Z,18.00
2018-07-06T10:39:55.558Z,18.03
2018-07-06T10:40:55.223Z,18.08
2018-07-06T10:41:55.177Z,18.13
2018-07-06T10:42:55.125Z,18.01
2018-07-06T10:43:55.109Z,17.97
2018-07-06T10:44:55.044Z,18.05
2018-07-06T10:45:54.989Z,18.08
2018-07-06T10:46:54.954Z,18.07
2018-07-06T10:47:54.902Z,18.05
2018-07-06T10:48:54.856Z,18.13
2018-07-06T10:49:54.807Z,18.05
2018-07-06T10:50:54.759Z,18.15
2018-07-06T10:51:54.722Z,18.18
2018-07-06T10:52:54.742Z,18.13
2018-07-06T10:53:54.633Z,18.22
2018-07-06T10:54:54.576Z,18.18
2018-07-06T10:55:54.546Z,18.15
2018-07-06T10:56:54.480Z,18.16
2018-07-06T10:57:54.437Z,18.16
2018-07-06T10:58:54.398Z,18.26
2018-07-06T10:59:54.347Z,18.33
2018-07-06T11:00:54.310Z,18.50
2018-07-06T11:01:54.260Z,18.53
2018-07-06T11:02:54.230Z,18.50
2018-07-06T11:03:54.189Z,18.43
2018-07-06T11:04:54.188Z,18.41
2018-07-06T11:05:54.075Z,18.50
2018-07-06T11:06:54.032Z,18.47
2018-07-06T11:07:53.980Z,18.50
2018-07-06T11:08:53.969Z,18.43
2018-07-06T11:09:53.892Z,18.52
2018-07-06T11:10:53.839Z,18.49
2018-07-06T11:11:53.789Z,18.56
2018-07-06T11:12:53.753Z,18.60
2018-07-06T11:13:53.712Z,18.55
2018-07-06T11:14:53.663Z,18.62
2018-07-06T11:15:53.617Z,18.63
2018-07-06T11:16:53.563Z,18.55
2018-07-06T11:17:53.518Z,18.56
2018-07-06T11:18:53.793Z,18.60
2018-07-06T11:19:53.562Z,18.62
2018-07-06T11:20:53.395Z,18.70
2018-07-06T11:21:53.341Z,18.60
2018-07-06T11:22:53.289Z,18.63
2018-07-06T11:23:53.273Z,18.62
2018-07-06T11:24:53.208Z,18.73
2018-07-06T11:25:53.163Z,18.65
2018-07-06T11:26:53.115Z,18.70
2018-07-06T11:27:53.077Z,18.84
2018-07-06T11:28:53.044Z,18.78
2018-07-06T11:29:53.503Z,18.88
2018-07-06T11:30:52.932Z,18.83
2018-07-06T11:31:52.887Z,18.80
2018-07-06T11:32:52.840Z,18.80
2018-07-06T11:33:52.799Z,18.78
2018-07-06T11:34:52.756Z,18.81
2018-07-06T11:35:52.713Z,18.80
2018-07-06T11:36:52.659Z,18.88
2018-07-06T11:37:52.734Z,18.84
2018-07-06T11:38:52.571Z,18.92
2018-07-06T11:39:52.517Z,18.80
2018-07-06T11:40:52.471Z,18.93
2018-07-06T11:41:52.426Z,18.89
2018-07-06T11:42:52.388Z,18.90
2018-07-06T11:43:52.659Z,18.93
2018-07-06T11:44:52.322Z,18.99
2018-07-06T11:45:52.253Z,19.00
2018-07-06T11:46:52.206Z,19.02
2018-07-06T11:47:52.158Z,19.02
2018-07-06T11:48:52.114Z,19.08
2018-07-06T11:49:52.073Z,19.07
2018-07-06T11:50:52.022Z,19.09
2018-07-06T11:51:51.981Z,19.11
2018-07-06T11:52:51.932Z,19.11
2018-07-06T11:53:51.870Z,19.11
2018-07-06T11:54:51.854Z,19.12
2018-07-06T11:55:51.793Z,19.08
2018-07-06T11:56:51.764Z,19.14
2018-07-06T11:57:51.700Z,19.18
2018-07-06T11:58:51.653Z,19.11
2018-07-06T11:59:51.598Z,19.12
2018-07-06T12:00:51.599Z,19.21
2018-07-06T12:01:51.555Z,19.22
2018-07-06T12:02:51.492Z,19.19
2018-07-06T12:03:51.450Z,19.22
2018-07-06T12:04:51.382Z,19.31
2018-07-06T12:05:51.362Z,19.29
2018-07-06T12:06:51.327Z,19.31
2018-07-06T12:07:51.267Z,19.30
2018-07-06T12:08:51.189Z,19.33
2018-07-06T12:09:51.168Z,19.41
2018-07-06T12:10:51.110Z,19.47
2018-07-06T12:11:51.108Z,19.44
2018-07-06T12:12:51.011Z,19.44
2018-07-06T12:13:50.991Z,19.52
2018-07-06T12:14:50.938Z,19.49
2018-07-06T12:15:50.898Z,19.56
2018-07-06T12:16:50.866Z,19.55
2018-07-06T12:17:50.783Z,19.56
2018-07-06T12:18:50.803Z,19.59
2018-07-06T12:19:50.692Z,19.54
2018-07-06T12:20:50.674Z,19.64
2018-07-06T12:21:50.751Z,19.63
2018-07-06T12:22:50.563Z,19.62
2018-07-06T12:23:50.508Z,19.66
2018-07-06T12:24:50.470Z,19.63
2018-07-06T12:25:50.433Z,19.67
2018-07-06T12:26:50.381Z,19.69
2018-07-06T12:27:50.392Z,19.66
2018-07-06T12:28:50.307Z,19.67
2018-07-06T12:29:50.267Z,19.74
2018-07-06T12:30:50.200Z,19.77
2018-07-06T12:31:50.155Z,19.79
2018-07-06T12:32:50.107Z,19.77
2018-07-06T12:33:50.069Z,19.86
2018-07-06T12:34:50.029Z,19.82
2018-07-06T12:35:49.984Z,19.85
2018-07-06T12:36:49.947Z,19.91
2018-07-06T12:37:49.901Z,19.84
2018-07-06T12:38:49.859Z,19.94
2018-07-06T12:39:49.790Z,19.95
2018-07-06T12:40:49.801Z,19.94
2018-07-06T12:41:49.717Z,20.00
2018-07-06T12:42:49.664Z,19.96
2018-07-06T12:43:49.649Z,19.96
2018-07-06T12:44:49.566Z,20.00
2018-07-06T12:45:49.559Z,20.04
2018-07-06T12:46:49.490Z,20.04
2018-07-06T12:47:49.461Z,20.09
2018-07-06T12:48:49.470Z,20.18
2018-07-06T12:49:49.349Z,20.21
2018-07-06T12:50:49.323Z,20.21
2018-07-06T12:51:49.361Z,20.31